createdAt,value
2018-11-29T05:16:35.590Z,65.69
2018-11-29T06:39:34.769Z,61.16
2018-11-29T06:40:34.665Z,61.06
2018-11-29T06:41:34.655Z,61.06
2018-11-29T06:42:34.645Z,61.71
2018-11-29T06:43:34.637Z,60.96
2018-11-29T06:44:34.630Z,61.09
2018-11-29T06:45:34.611Z,61.27
2018-11-29T06:46:34.599Z,60.96
2018-11-29T06:47:34.590Z,61.06
2018-11-29T06:48:34.577Z,61.27
2018-11-29T06:49:34.569Z,60.96
2018-11-29T06:50:34.557Z,60.77
2018-11-29T06:51:34.551Z,61.16
2018-11-29T06:52:34.537Z,60.67
2018-11-29T06:53:34.526Z,60.98
2018-11-29T06:54:34.520Z,60.65
2018-11-29T06:55:34.503Z,60.54
2018-11-29T06:56:34.491Z,60.75
2018-11-29T06:57:34.480Z,60.36
2018-11-29T06:58:34.470Z,60.26
2018-11-29T06:59:34.457Z,60.22
2018-11-29T07:00:34.451Z,60.46
2018-11-29T07:01:34.435Z,60.36
2018-11-29T07:02:34.425Z,60.43
2018-11-29T07:03:34.420Z,60.54
2018-11-29T07:04:34.402Z,60.46
2018-11-29T07:05:34.392Z,60.54
2018-11-29T07:06:34.382Z,60.12
2018-11-29T07:07:34.379Z,60.46
2018-11-29T07:08:34.366Z,59.94
2018-11-29T07:09:34.349Z,59.80
2018-11-29T07:10:34.337Z,59.49
2018-11-29T07:11:34.329Z,59.80
2018-11-29T07:12:34.320Z,59.91
2018-11-29T07:13:34.304Z,59.60
2018-11-29T07:14:34.300Z,59.28
2018-11-29T07:15:34.293Z,59.63
2018-11-29T07:16:34.277Z,59.70
2018-11-29T07:17:34.263Z,59.73
2018-11-29T07:18:34.255Z,59.60
2018-11-29T07:19:34.243Z,59.18
2018-11-29T07:20:34.228Z,59.39
2018-11-29T07:21:34.218Z,59.80
2018-11-29T07:22:34.208Z,59.60
2018-11-29T07:23:34.204Z,59.18
2018-11-29T07:24:34.191Z,59.21
2018-11-29T07:25:34.178Z,59.08
2018-11-29T07:26:34.166Z,59.28
2018-11-29T07:27:34.153Z,58.97
2018-11-29T07:28:34.142Z,59.08
2018-11-29T07:29:34.131Z,58.66
2018-11-29T07:30:34.122Z,58.45
2018-11-29T07:31:34.109Z,58.76
2018-11-29T07:32:34.098Z,58.74
2018-11-29T07:33:34.090Z,58.66
2018-11-29T07:34:34.076Z,58.66
2018-11-29T07:35:34.066Z,58.31
2018-11-29T07:36:34.054Z,58.31
2018-11-29T07:37:34.046Z,58.45
2018-11-29T07:38:34.031Z,58.21
2018-11-29T07:39:34.023Z,57.90
2018-11-29T07:40:34.016Z,58.21
2018-11-29T07:41:34.004Z,58.11
2018-11-29T07:42:33.987Z,57.69
2018-11-29T07:43:33.977Z,57.37
2018-11-29T07:44:33.973Z,57.17
2018-11-29T07:45:33.962Z,57.58
2018-11-29T07:46:33.951Z,57.58
2018-11-29T07:47:33.936Z,57.45
2018-11-29T07:48:33.924Z,57.03
2018-11-29T07:49:33.911Z,56.51
2018-11-29T07:50:33.901Z,57.03
2018-11-29T07:51:33.891Z,57.33
2018-11-29T07:52:33.877Z,56.49
2018-11-29T07:53:33.866Z,56.17
2018-11-29T07:54:33.856Z,56.07
2018-11-29T07:55:33.847Z,55.96
2018-11-29T07:56:33.841Z,55.86
2018-11-29T07:57:33.823Z,55.76
2018-11-29T07:58:33.811Z,55.45
2018-11-29T07:59:33.809Z,55.55
2018-11-29T08:00:33.796Z,55.73
2018-11-29T08:01:33.780Z,54.98
2018-11-29T08:02:33.779Z,55.16
2018-11-29T08:03:33.756Z,54.56
2018-11-29T08:04:33.754Z,54.53
2018-11-29T08:05:33.737Z,54.11
2018-11-29T08:06:33.725Z,54.45
2018-11-29T08:07:33.713Z,54.98
2018-11-29T08:08:33.701Z,54.79
2018-11-29T08:09:33.692Z,54.79
2018-11-29T08:10:33.690Z,55.00
2018-11-29T08:11:33.668Z,55.21
2018-11-29T08:12:33.657Z,55.10
2018-11-29T08:13:33.651Z,55.08
2018-11-29T08:14:33.634Z,54.77
2018-11-29T08:15:33.624Z,55.10
2018-11-29T08:16:33.612Z,55.21
2018-11-29T08:17:33.605Z,54.58
2018-11-29T08:18:33.590Z,54.79
2018-11-29T08:19:33.586Z,55.10
2018-11-29T08:20:33.568Z,54.58
2018-11-29T08:21:33.558Z,55.08
2018-11-29T08:22:33.547Z,54.66
2018-11-29T08:23:33.538Z,54.01
2018-11-29T08:24:33.525Z,54.22
2018-11-29T08:25:33.516Z,53.60
2018-11-29T08:26:33.503Z,53.39
2018-11-29T08:27:33.743Z,53.60
2018-11-29T08:28:33.486Z,53.60
2018-11-29T08:29:35.151Z,53.05
2018-11-29T08:30:33.477Z,52.94
2018-11-29T08:31:33.447Z,52.94
2018-11-29T08:32:33.435Z,52.63
2018-11-29T08:33:33.426Z,52.63
2018-11-29T08:34:33.415Z,52.71
2018-11-29T08:35:33.413Z,52.06
2018-11-29T08:36:33.395Z,51.65
2018-11-29T08:37:33.383Z,51.54
2018-11-29T08:38:33.368Z,51.23
2018-11-29T08:39:33.359Z,51.33
2018-11-29T08:40:33.347Z,51.00
2018-11-29T08:41:33.335Z,50.45
2018-11-29T08:42:33.325Z,49.60
2018-11-29T08:43:33.370Z,48.93
2018-11-29T08:44:33.309Z,48.05
2018-11-29T08:45:33.291Z,46.23
2018-11-29T08:46:33.280Z,44.84
2018-11-29T08:47:33.273Z,44.63
2018-11-29T08:49:33.247Z,43.89
2018-11-29T08:50:33.238Z,44.82
2018-11-29T08:51:33.224Z,43.12
2018-11-29T08:52:33.214Z,42.38
2018-11-29T08:53:33.204Z,41.94
2018-11-29T08:54:33.191Z,41.04
2018-11-29T08:55:33.183Z,42.19
2018-11-29T08:56:33.169Z,42.17
2018-11-29T08:57:33.161Z,40.91
2018-11-29T08:58:33.146Z,42.15
2018-11-29T08:59:33.171Z,41.84
2018-11-29T09:00:33.128Z,40.93
2018-11-29T09:01:33.115Z,41.22
2018-11-29T09:02:33.109Z,41.49
2018-11-29T09:03:33.091Z,41.18
2018-11-29T09:04:33.079Z,40.71
2018-11-29T09:05:34.141Z,42.07
2018-11-29T09:06:33.060Z,42.19
2018-11-29T09:07:33.045Z,41.26
2018-11-29T09:08:33.039Z,42.17
2018-11-29T09:09:33.033Z,41.35
2018-11-29T09:10:33.012Z,42.31
2018-11-29T09:11:33.006Z,42.43
2018-11-29T09:12:32.989Z,42.98
2018-11-29T09:13:32.980Z,42.77
2018-11-29T09:14:32.970Z,43.18
2018-11-29T09:15:32.955Z,43.10
2018-11-29T09:16:32.946Z,42.99
2018-11-29T09:17:32.939Z,43.53
2018-11-29T09:18:32.929Z,44.48
2018-11-29T09:19:37.412Z,44.51
2018-11-29T09:20:32.899Z,45.34
2018-11-29T09:21:32.945Z,45.03
2018-11-29T09:22:32.878Z,45.03
2018-11-29T09:23:32.867Z,45.34
2018-11-29T09:24:32.854Z,45.31
2018-11-29T09:25:32.845Z,45.15
2018-11-29T09:26:32.831Z,45.55
2018-11-29T09:27:32.820Z,45.13
2018-11-29T09:28:32.811Z,45.11
2018-11-29T09:29:32.799Z,44.90
2018-11-29T09:30:32.786Z,45.00
2018-11-29T09:31:32.775Z,44.72
2018-11-29T09:32:32.766Z,45.34
2018-11-29T09:33:32.753Z,45.36
2018-11-29T09:34:32.742Z,45.05
2018-11-29T09:35:32.731Z,45.88
2018-11-29T09:36:32.719Z,45.36
2018-11-29T09:37:32.711Z,45.77
2018-11-29T09:38:32.697Z,46.60
2018-11-29T09:39:32.698Z,46.20
2018-11-29T09:40:32.675Z,46.50
2018-11-29T09:41:32.669Z,45.88
2018-11-29T09:42:32.657Z,46.52
2018-11-29T09:43:32.646Z,46.73
2018-11-29T09:44:32.637Z,47.14
2018-11-29T09:45:32.621Z,46.73
2018-11-29T09:46:32.612Z,46.41
2018-11-29T09:47:32.601Z,46.39
2018-11-29T09:48:32.586Z,45.96
2018-11-29T09:49:32.576Z,45.25
2018-11-29T09:50:32.570Z,45.25
2018-11-29T09:51:32.562Z,46.08
2018-11-29T09:52:32.550Z,45.25
2018-11-29T09:53:33.095Z,46.73
2018-11-29T09:54:32.520Z,46.73
2018-11-29T09:55:32.509Z,45.77
2018-11-29T09:56:32.506Z,45.65
2018-11-29T09:57:33.505Z,45.25
2018-11-29T09:58:32.475Z,45.15
2018-11-29T09:59:32.465Z,44.92
2018-11-29T10:00:32.459Z,45.42
2018-11-29T10:01:32.448Z,45.19
2018-11-29T10:02:32.431Z,43.51
2018-11-29T10:03:32.424Z,42.98
2018-11-29T10:04:32.413Z,43.18
2018-11-29T10:05:32.422Z,43.20
2018-11-29T10:06:32.385Z,43.53
2018-11-29T10:07:32.373Z,44.23
2018-11-29T10:08:32.364Z,43.95
2018-11-29T10:09:32.352Z,43.84
2018-11-29T10:10:32.346Z,44.59
2018-11-29T10:11:32.336Z,44.88
2018-11-29T10:12:32.318Z,44.75
2018-11-29T10:13:32.309Z,43.28
2018-11-29T10:14:32.296Z,43.10
2018-11-29T10:15:32.289Z,43.01
2018-11-29T10:16:33.689Z,44.57
2018-11-29T10:17:32.265Z,44.90
2018-11-29T10:18:32.251Z,44.47
2018-11-29T10:19:32.239Z,43.41
2018-11-29T10:20:32.227Z,43.53
2018-11-29T10:21:33.415Z,43.08
2018-11-29T10:22:32.204Z,42.52
2018-11-29T10:23:32.199Z,42.31
2018-11-29T10:24:32.192Z,40.99
2018-11-29T10:25:32.177Z,39.62
2018-11-29T10:26:32.165Z,38.55
2018-11-29T10:27:32.153Z,38.00
2018-11-29T10:28:32.140Z,37.90
2018-11-29T10:29:32.249Z,38.01
2018-11-29T10:30:32.118Z,37.91
2018-11-29T10:31:32.108Z,37.90
2018-11-29T10:32:32.094Z,37.79
2018-11-29T10:33:32.095Z,36.93
2018-11-29T10:34:32.079Z,36.40
2018-11-29T10:35:32.061Z,36.95
2018-11-29T10:36:32.054Z,37.00
2018-11-29T10:37:32.039Z,35.72
2018-11-29T10:38:32.035Z,34.56
2018-11-29T10:39:32.017Z,34.95
2018-11-29T10:40:32.006Z,33.94
2018-11-29T10:41:31.994Z,34.68
2018-11-29T10:42:31.986Z,33.86
2018-11-29T10:43:31.972Z,35.55
2018-11-29T10:44:31.965Z,36.16
2018-11-29T10:45:31.956Z,36.18
2018-11-29T10:46:31.944Z,35.65
2018-11-29T10:47:31.937Z,35.87
2018-11-29T10:48:31.935Z,35.99
2018-11-29T10:49:31.945Z,36.28
2018-11-29T10:50:31.951Z,35.26
2018-11-29T10:51:31.885Z,35.98
2018-11-29T10:52:31.886Z,35.43
2018-11-29T10:53:36.999Z,34.40
2018-11-29T10:54:56.326Z,35.53
2018-11-29T10:55:56.314Z,34.71
2018-11-29T10:56:56.310Z,36.40
2018-11-29T10:57:56.295Z,35.79
2018-11-29T10:58:56.285Z,36.09
2018-11-29T10:59:56.273Z,35.98
2018-11-29T11:00:56.257Z,36.30
2018-11-29T11:01:56.247Z,36.02
2018-11-29T11:02:56.236Z,36.73
2018-11-29T11:03:56.224Z,36.54
2018-11-29T11:04:56.213Z,37.17
2018-11-29T11:05:56.199Z,37.67
2018-11-29T11:06:56.197Z,37.28
2018-11-29T11:07:56.179Z,37.69
2018-11-29T11:08:56.170Z,37.29
2018-11-29T11:09:56.154Z,37.29
2018-11-29T11:10:56.144Z,37.29
2018-11-29T11:11:56.133Z,36.97
2018-11-29T11:12:56.124Z,37.09
2018-11-29T11:13:56.112Z,37.28
2018-11-29T11:14:56.106Z,37.28
2018-11-29T11:15:56.085Z,38.14
2018-11-29T11:16:56.075Z,38.64
2018-11-29T11:17:56.062Z,38.33
2018-11-29T11:18:56.058Z,37.91
2018-11-29T11:19:56.050Z,38.01
2018-11-29T11:20:56.032Z,37.90
2018-11-29T11:21:56.094Z,36.93
2018-11-29T11:22:56.007Z,37.14
2018-11-29T11:23:59.284Z,37.59
2018-11-29T11:24:55.986Z,37.48
2018-11-29T11:25:55.974Z,37.67
2018-11-29T11:26:55.961Z,37.06
2018-11-29T11:27:55.950Z,37.57
2018-11-29T11:28:55.938Z,37.28
2018-11-29T11:29:55.927Z,36.95
2018-11-29T11:30:55.914Z,36.51
2018-11-29T11:31:55.902Z,36.08
2018-11-29T11:32:55.892Z,36.40
2018-11-29T11:33:55.880Z,35.85
2018-11-29T11:34:55.868Z,36.19
2018-11-29T11:35:55.862Z,35.82
2018-11-29T11:36:55.848Z,36.40
2018-11-29T11:37:55.833Z,36.32
2018-11-29T11:38:55.825Z,36.19
2018-11-29T11:39:55.815Z,35.87
2018-11-29T11:40:55.800Z,36.42
2018-11-29T11:41:55.787Z,36.85
2018-11-29T11:42:55.776Z,37.67
2018-11-29T11:43:55.766Z,36.87
2018-11-29T11:44:55.754Z,37.40
2018-11-29T11:45:55.744Z,37.82
2018-11-29T11:46:55.738Z,38.67
2018-11-29T11:47:55.722Z,38.69
2018-11-29T11:48:55.708Z,38.48
2018-11-29T11:49:55.696Z,38.79
2018-11-29T11:50:55.685Z,38.48
2018-11-29T11:51:55.673Z,39.31
2018-11-29T11:52:55.663Z,38.58
2018-11-29T11:53:55.660Z,38.70
2018-11-29T11:54:55.639Z,38.58
2018-11-29T11:55:55.693Z,38.36
2018-11-29T11:56:55.620Z,38.98
2018-11-29T11:57:55.607Z,39.10
2018-11-29T11:58:55.611Z,39.41
2018-11-29T11:59:55.591Z,38.91
2018-11-29T12:00:55.570Z,39.64
2018-11-29T12:01:55.559Z,39.43
2018-11-29T12:02:55.548Z,39.94
2018-11-29T12:03:55.539Z,39.00
2018-11-29T12:04:55.525Z,38.48
2018-11-29T12:05:55.517Z,38.38
2018-11-29T12:06:55.510Z,38.58
2018-11-29T12:07:55.492Z,38.48
2018-11-29T12:08:55.479Z,38.40
2018-11-29T12:09:55.467Z,39.64
2018-11-29T12:10:55.459Z,39.01
2018-11-29T12:11:55.451Z,39.12
2018-11-29T12:12:55.435Z,39.53
2018-11-29T12:13:55.424Z,39.43
2018-11-29T12:14:55.413Z,39.01
2018-11-29T12:15:55.399Z,39.62
2018-11-29T12:16:55.391Z,38.58
2018-11-29T12:17:55.386Z,38.60
2018-11-29T12:19:02.063Z,39.24
2018-11-29T12:19:56.374Z,39.75
2018-11-29T12:20:55.343Z,39.43
2018-11-29T12:21:55.337Z,39.14
2018-11-29T12:22:55.321Z,39.03
2018-11-29T12:23:55.310Z,39.55
2018-11-29T12:24:55.296Z,39.14
2018-11-29T12:25:55.287Z,39.14
2018-11-29T12:26:55.274Z,39.45
2018-11-29T12:27:55.309Z,39.96
2018-11-29T12:28:55.260Z,39.88
2018-11-29T12:29:55.246Z,40.17
2018-11-29T12:30:55.233Z,40.08
2018-11-29T12:31:55.222Z,39.57
2018-11-29T12:32:55.205Z,39.47
2018-11-29T12:33:55.194Z,40.38
2018-11-29T12:34:55.184Z,40.17
2018-11-29T12:35:55.174Z,39.75
2018-11-29T12:37:19.642Z,39.03
2018-11-29T12:38:19.630Z,39.12
2018-11-29T12:39:19.619Z,38.83
2018-11-29T12:40:19.606Z,39.14
2018-11-29T12:41:19.595Z,39.05
2018-11-29T12:42:19.591Z,39.67
2018-11-29T12:43:19.575Z,40.50
2018-11-29T12:44:19.562Z,40.52
2018-11-29T12:45:19.553Z,40.60
2018-11-29T12:46:19.543Z,40.29
2018-11-29T12:47:19.527Z,39.98
2018-11-29T12:48:19.515Z,40.19
2018-11-29T12:49:19.505Z,40.60
2018-11-29T12:50:19.500Z,39.98
2018-11-29T12:51:19.482Z,40.00
2018-11-29T12:52:19.472Z,40.62
2018-11-29T12:53:19.463Z,40.20
2018-11-29T12:54:19.448Z,40.41
2018-11-29T12:55:19.436Z,40.33
2018-11-29T12:56:19.434Z,40.74
2018-11-29T12:57:19.413Z,41.05
2018-11-29T12:58:19.407Z,40.33
2018-11-29T12:59:19.392Z,40.12
2018-11-29T13:00:19.386Z,41.26
2018-11-29T13:01:19.369Z,40.85
2018-11-29T13:02:19.358Z,40.24
2018-11-29T13:03:19.349Z,40.33
2018-11-29T13:04:19.338Z,40.85
2018-11-29T13:05:19.331Z,40.97
2018-11-29T13:06:19.313Z,41.05
2018-11-29T13:07:19.301Z,40.74
2018-11-29T13:08:19.289Z,40.66
2018-11-29T13:09:19.277Z,40.33
2018-11-29T13:10:19.265Z,40.20
2018-11-29T13:11:19.254Z,40.00
2018-11-29T13:12:19.248Z,39.89
2018-11-29T13:13:19.231Z,39.91
2018-11-29T13:14:19.363Z,40.00
2018-11-29T13:15:19.434Z,39.89
2018-11-29T13:16:19.198Z,40.00
2018-11-29T13:17:19.187Z,40.22
2018-11-29T13:18:19.175Z,40.33
2018-11-29T13:19:19.164Z,40.43
2018-11-29T13:20:19.153Z,40.22
2018-11-29T13:21:19.142Z,40.31
2018-11-29T13:22:19.130Z,40.31
2018-11-29T13:23:19.123Z,40.10
2018-11-29T13:24:19.107Z,40.00
2018-11-29T13:25:19.097Z,40.31
2018-11-29T13:26:19.085Z,40.31
2018-11-29T13:27:19.074Z,40.20
2018-11-29T13:28:19.064Z,39.57
2018-11-29T13:29:19.052Z,39.36
2018-11-29T13:30:19.044Z,39.59
2018-11-29T13:31:19.034Z,40.00
2018-11-29T13:32:19.025Z,40.41
2018-11-29T13:33:19.011Z,40.62
2018-11-29T13:34:18.994Z,39.67
2018-11-29T13:35:18.987Z,39.26
2018-11-29T13:36:19.012Z,39.67
2018-11-29T13:37:18.962Z,39.75
2018-11-29T13:38:18.949Z,39.98
2018-11-29T13:39:18.948Z,39.67
2018-11-29T13:41:18.915Z,40.41
2018-11-29T13:42:18.904Z,40.00
2018-11-29T13:43:20.895Z,40.31
2018-11-29T13:44:18.891Z,40.00
2018-11-29T13:45:18.869Z,40.12
2018-11-29T13:46:18.857Z,40.43
2018-11-29T13:47:18.848Z,41.26
2018-11-29T13:48:18.837Z,40.95
2018-11-29T13:49:18.830Z,40.22
2018-11-29T13:50:18.822Z,40.02
2018-11-29T13:51:18.804Z,40.95
2018-11-29T13:52:18.797Z,41.26
2018-11-29T13:53:18.784Z,40.14
2018-11-29T13:54:18.773Z,40.85
2018-11-29T13:55:18.883Z,40.66
2018-11-29T13:56:18.746Z,40.64
2018-11-29T13:57:18.736Z,40.74
2018-11-29T13:58:18.723Z,40.33
2018-11-29T13:59:18.709Z,40.95
2018-11-29T14:00:18.698Z,40.85
2018-11-29T14:01:18.687Z,40.45
2018-11-29T14:02:18.678Z,41.28
2018-11-29T14:03:18.784Z,41.49
2018-11-29T14:04:18.654Z,41.38
2018-11-29T14:05:18.643Z,40.66
2018-11-29T14:06:18.634Z,40.99
2018-11-29T14:07:18.624Z,41.30
2018-11-29T14:08:18.611Z,42.02
2018-11-29T14:09:18.600Z,42.02
2018-11-29T14:10:18.592Z,42.02
2018-11-29T14:11:18.576Z,41.92
2018-11-29T14:12:18.597Z,42.54
2018-11-29T14:13:18.571Z,41.92
2018-11-29T14:14:18.557Z,41.51
2018-11-29T14:15:18.534Z,41.73
2018-11-29T14:16:18.521Z,42.02
2018-11-29T14:17:18.513Z,42.34
2018-11-29T14:18:18.503Z,42.15
2018-11-29T14:19:18.495Z,42.35
2018-11-29T14:20:18.476Z,42.25
2018-11-29T14:21:18.470Z,42.25
2018-11-29T14:22:18.457Z,42.25
2018-11-29T14:23:18.442Z,42.25
2018-11-29T14:24:18.431Z,42.46
2018-11-29T14:25:18.420Z,42.48
2018-11-29T14:26:18.408Z,42.79
2018-11-29T14:27:18.398Z,42.48
2018-11-29T14:28:18.429Z,42.77
2018-11-29T14:29:18.377Z,42.46
2018-11-29T14:30:18.369Z,42.56
2018-11-29T14:31:18.352Z,42.46
2018-11-29T14:32:18.377Z,42.58
2018-11-29T14:33:18.330Z,42.87
2018-11-29T14:34:18.320Z,43.31
2018-11-29T14:35:18.308Z,43.31
2018-11-29T14:36:18.303Z,43.20
2018-11-29T14:37:18.285Z,42.48
2018-11-29T14:38:18.276Z,43.01
2018-11-29T14:39:18.262Z,43.41
2018-11-29T14:40:18.252Z,43.31
2018-11-29T14:41:18.247Z,42.79
2018-11-29T14:42:18.236Z,42.89
2018-11-29T14:43:18.220Z,42.56
2018-11-29T14:44:18.209Z,43.08
2018-11-29T14:45:18.197Z,42.98
2018-11-29T14:46:18.186Z,43.20
2018-11-29T14:47:18.181Z,42.79
2018-11-29T14:48:18.161Z,43.20
2018-11-29T14:49:18.151Z,43.10
2018-11-29T14:50:18.139Z,42.68
2018-11-29T14:51:18.134Z,42.89
2018-11-29T14:52:18.117Z,42.91
2018-11-29T14:53:18.110Z,43.22
2018-11-29T14:54:18.099Z,43.22
2018-11-29T14:55:18.091Z,43.01
2018-11-29T14:56:18.070Z,42.91
2018-11-29T14:57:18.067Z,43.12
2018-11-29T14:58:19.799Z,43.32
2018-11-29T14:59:18.036Z,43.01
2018-11-29T15:00:18.026Z,43.01
2018-11-29T15:01:18.013Z,43.12
2018-11-29T15:02:18.002Z,42.91
2018-11-29T15:03:18.002Z,43.01
2018-11-29T15:04:17.979Z,43.01
2018-11-29T15:05:17.971Z,43.76
2018-11-29T15:06:17.957Z,43.55
2018-11-29T15:07:17.951Z,42.82
2018-11-29T15:08:17.937Z,43.65
2018-11-29T15:09:17.964Z,43.55
2018-11-29T15:10:17.910Z,43.55
2018-11-29T15:11:17.909Z,44.09
2018-11-29T15:12:17.888Z,43.16
2018-11-29T15:13:17.876Z,44.51
2018-11-29T15:14:18.041Z,43.96
2018-11-29T15:15:17.862Z,44.40
2018-11-29T15:16:17.844Z,43.86
2018-11-29T15:17:17.837Z,44.28
2018-11-29T15:18:17.836Z,44.28
2018-11-29T15:19:17.850Z,44.28
2018-11-29T15:20:17.842Z,44.38
2018-11-29T15:21:17.787Z,44.28
2018-11-29T15:22:17.786Z,44.40
2018-11-29T15:23:17.788Z,44.79
2018-11-29T15:24:17.795Z,44.92
2018-11-29T15:25:17.744Z,44.40
2018-11-29T15:26:17.734Z,44.40
2018-11-29T15:27:17.715Z,45.23
2018-11-29T15:28:17.704Z,44.72
2018-11-29T15:29:17.696Z,44.59
2018-11-29T15:30:17.680Z,44.79
2018-11-29T15:31:17.670Z,45.00
2018-11-29T15:32:17.661Z,44.48
2018-11-29T15:33:17.648Z,45.23
2018-11-29T15:34:17.636Z,44.72
2018-11-29T15:35:17.739Z,44.82
2018-11-29T15:36:17.619Z,45.03
2018-11-29T15:37:17.601Z,45.13
2018-11-29T15:38:17.596Z,45.23
2018-11-29T15:39:17.592Z,44.61
2018-11-29T15:40:17.569Z,45.36
2018-11-29T15:41:18.268Z,45.56
2018-11-29T15:42:17.545Z,45.44
2018-11-29T15:43:17.534Z,45.25
2018-11-29T15:44:17.526Z,44.84
2018-11-29T15:45:17.515Z,45.05
2018-11-29T15:46:17.497Z,44.94
2018-11-29T15:47:17.486Z,44.94
2018-11-29T15:48:17.478Z,45.03
2018-11-29T15:49:17.463Z,44.84
2018-11-29T15:50:17.490Z,44.84
2018-11-29T15:51:17.440Z,45.67
2018-11-29T15:52:17.427Z,45.46
2018-11-29T15:53:17.417Z,45.25
2018-11-29T15:54:17.413Z,45.36
2018-11-29T15:55:17.395Z,45.88
2018-11-29T15:56:17.383Z,45.67
2018-11-29T15:57:17.371Z,45.25
2018-11-29T15:58:17.363Z,45.23
2018-11-29T15:59:17.352Z,45.88
2018-11-29T16:00:17.336Z,46.08
2018-11-29T16:01:17.326Z,46.19
2018-11-29T16:02:17.319Z,46.08
2018-11-29T16:03:17.301Z,46.08
2018-11-29T16:04:17.294Z,46.50
2018-11-29T16:05:17.279Z,46.08
2018-11-29T16:06:17.281Z,46.19
2018-11-29T16:07:17.255Z,46.39
2018-11-29T16:08:17.248Z,46.71
2018-11-29T16:09:17.233Z,46.50
2018-11-29T16:10:17.238Z,46.91
2018-11-29T16:11:17.211Z,46.39
2018-11-29T16:12:17.198Z,46.71
2018-11-29T16:13:17.194Z,46.39
2018-11-29T16:14:17.181Z,46.60
2018-11-29T16:15:17.167Z,46.81
2018-11-29T16:16:17.156Z,46.60
2018-11-29T16:17:17.146Z,46.39
2018-11-29T16:18:17.155Z,46.63
2018-11-29T16:19:17.119Z,46.31
2018-11-29T16:20:17.295Z,46.52
2018-11-29T16:21:17.094Z,46.91
2018-11-29T16:22:17.085Z,46.81
2018-11-29T16:23:17.073Z,46.39
2018-11-29T16:24:17.080Z,46.83
2018-11-29T16:25:17.050Z,46.83
2018-11-29T16:26:17.038Z,46.91
2018-11-29T16:27:17.029Z,47.04
2018-11-29T16:28:17.015Z,46.83
2018-11-29T16:29:17.006Z,46.50
2018-11-29T16:30:16.993Z,46.83
2018-11-29T16:31:16.981Z,46.83
2018-11-29T16:32:16.970Z,47.04
2018-11-29T16:33:16.957Z,47.14
2018-11-29T16:34:16.946Z,47.04
2018-11-29T16:35:16.973Z,46.20
2018-11-29T16:36:16.930Z,46.83
2018-11-29T16:37:16.915Z,47.25
2018-11-29T16:38:16.902Z,46.94
2018-11-29T16:39:16.890Z,47.04
2018-11-29T16:40:16.878Z,46.94
2018-11-29T16:41:16.884Z,46.83
2018-11-29T16:42:16.866Z,47.47
2018-11-29T16:43:16.842Z,47.47
2018-11-29T16:44:16.834Z,47.25
2018-11-29T16:45:16.820Z,47.56
2018-11-29T16:46:16.807Z,47.58
2018-11-29T16:47:16.801Z,47.58
2018-11-29T16:48:16.788Z,46.75
2018-11-29T16:49:16.774Z,46.96
2018-11-29T16:50:16.770Z,47.46
2018-11-29T16:51:16.754Z,47.58
2018-11-29T16:52:16.740Z,47.47
2018-11-29T16:53:16.729Z,47.27
2018-11-29T16:54:16.725Z,47.68
2018-11-29T16:55:16.705Z,47.27
2018-11-29T16:56:16.695Z,46.85
2018-11-29T16:57:16.691Z,47.47
2018-11-29T16:58:16.678Z,46.85
2018-11-29T16:59:16.661Z,47.27
2018-11-29T17:00:16.652Z,47.16
2018-11-29T17:01:16.641Z,46.75
2018-11-29T17:02:16.630Z,46.85
2018-11-29T17:03:16.615Z,46.64
2018-11-29T17:04:16.603Z,47.06
2018-11-29T17:05:16.593Z,47.16
2018-11-29T17:06:16.582Z,46.88
2018-11-29T17:07:16.569Z,46.75
2018-11-29T17:08:16.560Z,46.85
2018-11-29T17:09:16.551Z,46.85
2018-11-29T17:10:16.535Z,46.64
2018-11-29T17:11:16.522Z,46.64
2018-11-29T17:12:16.512Z,46.88
2018-11-29T17:13:16.500Z,46.35
2018-11-29T17:14:16.488Z,46.98
2018-11-29T17:15:16.480Z,47.19
2018-11-29T17:16:16.466Z,46.56
2018-11-29T17:17:16.456Z,46.25
2018-11-29T17:18:16.445Z,46.88
2018-11-29T17:19:16.434Z,47.60
2018-11-29T17:20:16.422Z,47.19
2018-11-29T17:21:16.411Z,47.19
2018-11-29T17:22:16.399Z,47.08
2018-11-29T17:23:16.389Z,46.77
2018-11-29T17:24:16.381Z,47.19
2018-11-29T17:25:16.367Z,46.56
2018-11-29T17:26:16.362Z,47.21
2018-11-29T17:27:16.348Z,47.29
2018-11-29T17:28:16.337Z,46.98
2018-11-29T17:29:16.321Z,46.88
2018-11-29T17:30:16.319Z,46.88
2018-11-29T17:31:16.305Z,47.08
2018-11-29T17:32:16.292Z,46.98
2018-11-29T17:33:16.361Z,46.98
2018-11-29T17:34:16.262Z,47.08
2018-11-29T17:35:16.256Z,46.45
2018-11-29T17:36:16.254Z,46.88
2018-11-29T17:37:16.230Z,47.29
2018-11-29T17:38:16.221Z,47.21
2018-11-29T17:39:16.215Z,46.45
2018-11-29T17:40:16.203Z,46.35
2018-11-29T17:41:16.186Z,46.35
2018-11-29T17:42:16.173Z,47.08
2018-11-29T17:43:16.163Z,46.77
2018-11-29T17:44:16.156Z,46.45
2018-11-29T17:45:16.140Z,46.48
2018-11-29T17:46:16.131Z,46.35
2018-11-29T17:47:16.119Z,45.83
2018-11-29T17:48:16.107Z,46.79
2018-11-29T17:49:16.097Z,46.06
2018-11-29T17:50:16.091Z,46.48
2018-11-29T17:51:16.074Z,46.17
2018-11-29T17:52:16.063Z,46.04
2018-11-29T17:53:16.051Z,46.35
2018-11-29T17:54:16.045Z,46.35
2018-11-29T17:55:16.032Z,45.83
2018-11-29T17:56:16.022Z,45.31
2018-11-29T17:57:16.008Z,46.35
2018-11-29T17:58:15.998Z,45.23
2018-11-29T17:59:15.984Z,46.04
2018-11-29T18:00:15.975Z,45.31
2018-11-29T18:01:15.966Z,45.83
2018-11-29T18:02:15.956Z,45.31
2018-11-29T18:03:15.942Z,45.34
2018-11-29T18:04:15.930Z,45.86
2018-11-29T18:05:16.028Z,45.42
2018-11-29T18:06:15.910Z,45.96
2018-11-29T18:07:15.899Z,44.90
2018-11-29T18:08:15.891Z,44.79
2018-11-29T18:09:15.877Z,45.00
2018-11-29T18:10:15.868Z,45.11
2018-11-29T18:11:15.852Z,45.31
2018-11-29T18:12:15.845Z,45.12
2018-11-29T18:13:15.830Z,44.81
2018-11-29T18:14:15.819Z,45.00
2018-11-29T18:15:15.807Z,45.12
2018-11-29T18:16:15.801Z,45.23
2018-11-29T18:17:15.785Z,45.23
2018-11-29T18:18:15.775Z,45.44
2018-11-29T18:19:15.764Z,44.92
2018-11-29T18:20:15.755Z,44.92
2018-11-29T18:21:15.745Z,45.34
2018-11-29T18:22:15.729Z,45.86
2018-11-29T18:23:15.721Z,45.34
2018-11-29T18:24:15.708Z,44.81
2018-11-29T18:25:15.695Z,45.12
2018-11-29T18:26:15.684Z,45.36
2018-11-29T18:27:15.674Z,44.92
2018-11-29T18:28:15.664Z,45.34
2018-11-29T18:29:15.650Z,44.92
2018-11-29T18:30:15.638Z,45.65
2018-11-29T18:31:15.631Z,45.65
2018-11-29T18:32:15.616Z,45.65
2018-11-29T18:33:15.605Z,45.34
2018-11-29T18:34:15.593Z,45.65
2018-11-29T18:35:15.584Z,45.34
2018-11-29T18:36:15.691Z,45.55
2018-11-29T18:37:15.558Z,45.86
2018-11-29T18:38:15.551Z,45.23
2018-11-29T18:39:15.537Z,45.55
2018-11-29T18:40:15.527Z,45.34
2018-11-29T18:41:15.514Z,45.23
2018-11-29T18:42:15.507Z,45.55
2018-11-29T18:43:15.494Z,44.92
2018-11-29T18:44:15.484Z,44.61
2018-11-29T18:45:15.476Z,45.12
2018-11-29T18:46:17.289Z,45.75
2018-11-29T18:47:15.444Z,45.02
2018-11-29T18:48:15.435Z,44.71
2018-11-29T18:49:15.425Z,45.44
2018-11-29T18:50:15.414Z,45.02
2018-11-29T18:51:15.401Z,44.92
2018-11-29T18:52:15.388Z,44.81
2018-11-29T18:53:15.379Z,44.81
2018-11-29T18:54:15.373Z,44.94
2018-11-29T18:55:15.363Z,44.84
2018-11-29T18:56:15.344Z,45.15
2018-11-29T18:57:15.334Z,45.25
2018-11-29T18:58:15.322Z,45.56
2018-11-29T18:59:15.309Z,44.73
2018-11-29T19:00:15.299Z,45.05
2018-11-29T19:01:15.285Z,45.67
2018-11-29T19:02:15.276Z,45.36
2018-11-29T19:03:15.263Z,44.84
2018-11-29T19:04:15.250Z,44.94
2018-11-29T19:05:15.241Z,44.94
2018-11-29T19:06:15.228Z,44.73
2018-11-29T19:07:15.218Z,44.73
2018-11-29T19:08:15.208Z,44.84
2018-11-29T19:09:15.195Z,45.46
2018-11-29T19:10:15.187Z,45.05
2018-11-29T19:11:15.173Z,45.02
2018-11-29T19:12:15.162Z,44.53
2018-11-29T19:13:15.148Z,44.42
2018-11-29T19:14:15.138Z,44.84
2018-11-29T19:15:15.132Z,44.84
2018-11-29T19:16:15.114Z,45.06
2018-11-29T19:17:15.109Z,44.73
2018-11-29T19:18:15.091Z,44.94
2018-11-29T19:19:15.080Z,44.84
2018-11-29T19:20:15.069Z,44.94
2018-11-29T19:21:15.060Z,44.53
2018-11-29T19:22:15.047Z,44.42
2018-11-29T19:23:15.034Z,44.42
2018-11-29T19:24:15.026Z,44.42
2018-11-29T19:25:15.013Z,44.53
2018-11-29T19:26:15.000Z,44.21
2018-11-29T19:27:14.996Z,44.63
2018-11-29T19:28:14.981Z,44.42
2018-11-29T19:29:14.968Z,44.11
2018-11-29T19:30:14.957Z,44.75
2018-11-29T19:31:14.950Z,45.46
2018-11-29T19:32:14.934Z,44.42
2018-11-29T19:33:17.356Z,44.94